Chattanooga, Oklahoma
Current Conditions -  °F | °C
As of 9:53 AM on Tuesday 21 Oct 2014 (Local Time) from KLAW Reporting Station
Clear Clear  
Wind Chill: 66°   Ceiling: Unl
Heat Index: 66°   Visibility: 9mi
Dew Point: 58°   Wind: 3mph
Humidity: 75%   Direction: 130°SE
Pressure: 30.11"   Gusts: NA
Location:  34.42°N, 98.66°W
Report Text: KLAW 211453Z 13003KT 9SM CLR 19/14 A3011 RMK AO2 SLP191 T01890144 51012
Loading
Personal Weather Stations






























Interactive Weather Map
Tropical Storm Tracking
New forecast layout! Learn more

10-Day Weather Forecast

Advertisements
Track Severe Weather on mobile